Map

Track Data

SID SEASON NUMBER BASIN SUBBASIN NAME ISO_TIME NATURE LAT LON WMO_WIND WMO_PRES WMO_AGENCY TRACK_TYPE DIST2LAND LANDFALL IFLAG USA_AGENCY USA_ATCF_ID USA_LAT USA_LON USA_RECORD USA_STATUS USA_WIND USA_PRES USA_SSHS USA_R34_NE USA_R34_SE USA_R34_SW USA_R34_NW USA_R50_NE USA_R50_SE USA_R50_SW USA_R50_NW USA_R64_NE USA_R64_SE USA_R64_SW USA_R64_NW USA_POCI USA_ROCI USA_RMW USA_EYE TOKYO_LAT TOKYO_LON TOKYO_GRADE TOKYO_WIND TOKYO_PRES TOKYO_R50_DIR TOKYO_R50_LONG TOKYO_R50_SHORT TOKYO_R30_DIR TOKYO_R30_LONG TOKYO_R30_SHORT TOKYO_LAND CMA_LAT CMA_LON CMA_CAT CMA_WIND CMA_PRES HKO_LAT HKO_LON HKO_CAT HKO_WIND HKO_PRES NEWDELHI_LAT NEWDELHI_LON NEWDELHI_GRADE NEWDELHI_WIND NEWDELHI_PRES NEWDELHI_CI NEWDELHI_DP NEWDELHI_POCI REUNION_LAT REUNION_LON REUNION_TYPE REUNION_WIND REUNION_PRES REUNION_TNUM REUNION_CI REUNION_RMW REUNION_R34_NE REUNION_R34_SE REUNION_R34_SW REUNION_R34_NW REUNION_R50_NE REUNION_R50_SE REUNION_R50_SW REUNION_R50_NW REUNION_R64_NE REUNION_R64_SE REUNION_R64_SW REUNION_R64_NW BOM_LAT BOM_LON BOM_TYPE BOM_WIND BOM_PRES BOM_TNUM BOM_CI BOM_RMW BOM_R34_NE BOM_R34_SE BOM_R34_SW BOM_R34_NW BOM_R50_NE BOM_R50_SE BOM_R50_SW BOM_R50_NW BOM_R64_NE BOM_R64_SE BOM_R64_SW BOM_R64_NW BOM_ROCI BOM_POCI BOM_EYE BOM_POS_METHOD BOM_PRES_METHOD NADI_LAT NADI_LON NADI_CAT NADI_WIND NADI_PRES WELLINGTON_LAT WELLINGTON_LON WELLINGTON_WIND WELLINGTON_PRES DS824_LAT DS824_LON DS824_STAGE DS824_WIND DS824_PRES TD9636_LAT TD9636_LON TD9636_STAGE TD9636_WIND TD9636_PRES TD9635_LAT TD9635_LON TD9635_WIND TD9635_PRES TD9635_ROCI NEUMANN_LAT NEUMANN_LON NEUMANN_CLASS NEUMANN_WIND NEUMANN_PRES MLC_LAT MLC_LON MLC_CLASS MLC_WIND MLC_PRES USA_GUST BOM_GUST BOM_GUST_PER REUNION_GUST REUNION_GUST_PER USA_SEAHGT USA_SEARAD_NE USA_SEARAD_SE USA_SEARAD_SW USA_SEARAD_NW STORM_SPEED STORM_DIR
1867223N24278 1867 13 NA NA NOT_NAMED 1867-08-10 12:00:00 TS 24.0000 -82.5000 main 100 100 _____________O -1 24.0000 -82.5000 TD 30 3 5
1867223N24278 1867 13 NA NA NOT_NAMED 1867-08-10 15:00:00 TS 24.1625 -82.5000 main 122 122 _____________P -1 24.1625 -82.5000 TD 30 3 0
1867223N24278 1867 13 NA NA NOT_NAMED 1867-08-10 18:00:00 TS 24.3000 -82.5000 main 134 134 _____________O -1 24.3000 -82.5000 TD 30 2 0
1867223N24278 1867 13 NA NA NOT_NAMED 1867-08-10 21:00:00 TS 24.4000 -82.5000 main 145 145 _____________P -1 24.4000 -82.5000 TD 30 2 8
1867223N24278 1867 13 NA NA NOT_NAMED 1867-08-11 00:00:00 TS 24.5000 -82.5000 main 152 147 _____________O -1 24.5000 -82.5000 TD 30 3 2
1867223N24278 1867 13 NA GM NOT_NAMED 1867-08-11 03:00:00 TS 24.6500 -82.5000 main 142 138 _____________P -1 24.6500 -82.5000 TD 30 3 0
1867223N24278 1867 13 NA GM NOT_NAMED 1867-08-11 06:00:00 TS 24.8000 -82.5000 main 138 125 _____________O -1 24.8000 -82.5000 TD 30 2 8
1867223N24278 1867 13 NA GM NOT_NAMED 1867-08-11 09:00:00 TS 24.8849 -82.4478 main 125 125 _____________P -1 24.8849 -82.4478 TD 32 2 8
1867223N24278 1867 13 NA GM NOT_NAMED 1867-08-11 12:00:00 TS 25.0000 -82.5000 main 128 127 _____________O -1 25.0000 -82.5000 TS 35 5 317
1867223N24278 1867 13 NA GM NOT_NAMED 1867-08-11 15:00:00 TS 25.2352 -82.8047 main 135 129 _____________P -1 25.2352 -82.8047 TS 37 8 308
1867223N24278 1867 13 NA GM NOT_NAMED 1867-08-11 18:00:00 TS 25.5000 -83.2000 main 155 155 _____________O -1 25.5000 -83.2000 TS 40 8 306
1867223N24278 1867 13 NA GM NOT_NAMED 1867-08-11 21:00:00 TS 25.6998 -83.5003 main 171 170 _____________P -1 25.6998 -83.5003 TS 42 7 306
1867223N24278 1867 13 NA GM NOT_NAMED 1867-08-12 00:00:00 TS 25.9000 -83.8000 main 180 180 _____________O -1 25.9000 -83.8000 TS 45 7 308
1867223N24278 1867 13 NA GM NOT_NAMED 1867-08-12 03:00:00 TS 26.1500 -84.1425 main 195 195 _____________P -1 26.1500 -84.1425 TS 42 8 309
1867223N24278 1867 13 NA GM NOT_NAMED 1867-08-12 06:00:00 TS 26.4000 -84.5000 main 213 213 _____________O -1 26.4000 -84.5000 TS 40 8 304
1867223N24278 1867 13 NA GM NOT_NAMED 1867-08-12 09:00:00 TS 26.5851 -84.8727 main 240 240 _____________P -1 26.5851 -84.8727 TS 37 7 303
1867223N24278 1867 13 NA GM NOT_NAMED 1867-08-12 12:00:00 TS 26.8000 -85.2000 main 258 257 _____________O -1 26.8000 -85.2000 TS 35 7 318
1867223N24278 1867 13 NA GM NOT_NAMED 1867-08-12 15:00:00 TS 27.1274 -85.4226 main 262 246 _____________P -1 27.1274 -85.4226 TS 35 8 333
1867223N24278 1867 13 NA GM NOT_NAMED 1867-08-12 18:00:00 TS 27.5000 -85.6000 main 246 215 _____________O -1 27.5000 -85.6000 TS 35 8 333
1867223N24278 1867 13 NA GM NOT_NAMED 1867-08-12 21:00:00 TS 27.8501 -85.8298 main 204 177 _____________P -1 27.8501 -85.8298 TS 35 8 333
1867223N24278 1867 13 NA GM NOT_NAMED 1867-08-13 00:00:00 TS 28.2000 -86.0000 main 177 146 _____________O -1 28.2000 -86.0000 TS 35 7 346
1867223N24278 1867 13 NA GM NOT_NAMED 1867-08-13 03:00:00 TS 28.5575 -86.0303 main 135 106 _____________P -1 28.5575 -86.0303 TS 35 7 0
1867223N24278 1867 13 NA GM NOT_NAMED 1867-08-13 06:00:00 TS 28.9000 -86.0000 main 106 80 _____________O -1 28.9000 -86.0000 TS 35 7 0
1867223N24278 1867 13 NA GM NOT_NAMED 1867-08-13 09:00:00 TS 29.2149 -86.0298 main 80 62 _____________P -1 29.2149 -86.0298 TS 35 6 1
1867223N24278 1867 13 NA GM NOT_NAMED 1867-08-13 12:00:00 TS 29.5000 -86.0000 main 62 48 _____________O -1 29.5000 -86.0000 TS 35 6 17
1867223N24278 1867 13 NA GM NOT_NAMED 1867-08-13 15:00:00 TS 29.7575 -85.8450 main 34 9 _____________P -1 29.7575 -85.8450 TS 32 6 35
1867223N24278 1867 13 NA GM NOT_NAMED 1867-08-13 18:00:00 TS 30.0000 -85.6000 main 9 0 _____________O -1 30.0000 -85.6000 TD 30 7 41
1867223N24278 1867 13 NA NA NOT_NAMED 1867-08-13 21:00:00 TS 30.2497 -85.3522 main 0 0 _____________P -1 30.2497 -85.3522 TD 30 7 46
1867223N24278 1867 13 NA NA NOT_NAMED 1867-08-14 00:00:00 TS 30.5000 -85.0000 main 0 0 _____________O -1 30.5000 -85.0000 TD 30 9 57
1867223N24278 1867 13 NA NA NOT_NAMED 1867-08-14 03:00:00 TS 30.7276 -84.4945 main 0 0 _____________P -1 30.7276 -84.4945 TD 30 11 62
1867223N24278 1867 13 NA NA NOT_NAMED 1867-08-14 06:00:00 TS 31.0000 -83.9000 main 0 0 _____________O -1 31.0000 -83.9000 TD 30 12 57
1867223N24278 1867 13 NA NA NOT_NAMED 1867-08-14 09:00:00 TS 31.3773 -83.3075 main 0 0 _____________P -1 31.3773 -83.3075 TD 30 13 52
1867223N24278 1867 13 NA NA NOT_NAMED 1867-08-14 12:00:00 TS 31.8000 -82.7000 main 0 0 _____________O -1 31.8000 -82.7000 TD 30 13 52
1867223N24278 1867 13 NA NA NOT_NAMED 1867-08-14 15:00:00 TS 32.1922 -82.0993 main 0 0 _____________P -1 32.1922 -82.0993 TD 30 13 52
1867223N24278 1867 13 NA NA NOT_NAMED 1867-08-14 18:00:00 TS 32.6000 -81.5000 main 0 0 _____________O -1 32.6000 -81.5000 TD 30 13 50
1867223N24278 1867 13 NA NA NOT_NAMED 1867-08-14 21:00:00 TS 33.0497 -80.8997 main 0 0 _____________P -1 33.0497 -80.8997 TD 32 14 48
1867223N24278 1867 13 NA NA NOT_NAMED 1867-08-15 00:00:00 TS 33.5000 -80.3000 main 0 0 _____________O -1 33.5000 -80.3000 TS 35 13 50
1867223N24278 1867 13 NA NA NOT_NAMED 1867-08-15 03:00:00 TS 33.8997 -79.6991 main 0 0 _____________P -1 33.8997 -79.6991 TS 35 13 51
1867223N24278 1867 13 NA NA NOT_NAMED 1867-08-15 06:00:00 TS 34.3000 -79.1000 main 0 0 _____________O -1 34.3000 -79.1000 TS 35 13 51
1867223N24278 1867 13 NA NA NOT_NAMED 1867-08-15 09:00:00 TS 34.7504 -78.4406 main 0 0 _____________P -1 34.7504 -78.4406 TS 35 13 48
1867223N24278 1867 13 NA NA NOT_NAMED 1867-08-15 12:00:00 TS 35.2000 -77.9000 main 0 0 _____________O -1 35.2000 -77.9000 TS 35 11 39
1867223N24278 1867 13 NA NA NOT_NAMED 1867-08-15 15:00:00 TS 35.5770 -77.6312 main 0 0 _____________P -1 35.5770 -77.6312 TS 32 9 22
1867223N24278 1867 13 NA NA NOT_NAMED 1867-08-15 18:00:00 TS 36.0000 -77.5000 main 0 0 _____________O -1 36.0000 -77.5000 TD 30 10 13
1867223N24278 1867 13 NA NA NOT_NAMED 1867-08-15 21:00:00 TS 36.5774 -77.3497 main 0 0 _____________P -1 36.5774 -77.3497 TD 30 12 11
1867223N24278 1867 13 NA NA NOT_NAMED 1867-08-16 00:00:00 TS 37.2000 -77.2000 main 0 0 _____________O -1 37.2000 -77.2000 TD 30 12 13
1867223N24278 1867 13 NA NA NOT_NAMED 1867-08-16 03:00:00 TS 37.7575 -77.0000 main 0 0 _____________P -1 37.7575 -77.0000 TD 30 11 16
1867223N24278 1867 13 NA NA NOT_NAMED 1867-08-16 06:00:00 TS 38.3000 -76.8000 main 0 0 _____________O -1 38.3000 -76.8000 TD 30 11 14
1867223N24278 1867 13 NA NA NOT_NAMED 1867-08-16 09:00:00 TS 38.8499 -76.6567 main 0 0 _____________P -1 38.8499 -76.6567 TD 30 11 12
1867223N24278 1867 13 NA NA NOT_NAMED 1867-08-16 12:00:00 TS 39.4000 -76.5000 main 0 0 _____________O -1 39.4000 -76.5000 TD 30 12 14
1867223N24278 1867 13 NA NA NOT_NAMED 1867-08-16 15:00:00 TS 40.0099 -76.2805 main 0 0 _____________P -1 40.0099 -76.2805 TD 30 12 19
1867223N24278 1867 13 NA NA NOT_NAMED 1867-08-16 18:00:00 ET 40.5000 -76.0000 main 0 0 _____________O -1 40.5000 -76.0000 EX 30 8 34
1867223N24278 1867 13 NA NA NOT_NAMED 1867-08-16 21:00:00 ET 40.7025 -75.6641 main 0 0 _____________P -1 40.7025 -75.6641 EX 30 6 60
1867223N24278 1867 13 NA NA NOT_NAMED 1867-08-17 00:00:00 ET 40.8000 -75.3000 main 0 0 _____________O -1 40.8000 -75.3000 EX 30 6 61
1867223N24278 1867 13 NA NA NOT_NAMED 1867-08-17 03:00:00 ET 41.0000 -74.9426 main 0 0 _____________P -1 41.0000 -74.9426 EX 30 7 53
1867223N24278 1867 13 NA NA NOT_NAMED 1867-08-17 06:00:00 ET 41.2000 -74.6000 main 0 0 _____________O -1 41.2000 -74.6000 EX 30 5 57
1867223N24278 1867 13 NA NA NOT_NAMED 1867-08-17 09:00:00 ET 41.2816 -74.3570 main 0 0 _____________P -1 41.2816 -74.3570 EX 30 5 56
1867223N24278 1867 13 NA NA NOT_NAMED 1867-08-17 12:00:00 ET 41.5000 -74.0000 main 0 0 _____________O -1 41.5000 -74.0000 EX 30 11 44
1867223N24278 1867 13 NA NA NOT_NAMED 1867-08-17 15:00:00 ET 42.0831 -73.3197 main 0 0 _____________P -1 42.0831 -73.3197 EX 30 17 41
1867223N24278 1867 13 NA NA NOT_NAMED 1867-08-17 18:00:00 ET 42.8000 -72.5000 main 0 0 _____________O -1 42.8000 -72.5000 EX 30 17 41
1867223N24278 1867 13 NA NA NOT_NAMED 1867-08-17 21:00:00 ET 43.3995 -71.7480 main 0 0 _____________P -1 43.3995 -71.7480 EX 30 16 42
1867223N24278 1867 13 NA NA NOT_NAMED 1867-08-18 00:00:00 ET 44.0000 -71.0000 main 0 0 _____________O -1 44.0000 -71.0000 EX 30 16 41
1867223N24278 1867 13 NA NA NOT_NAMED 1867-08-18 03:00:00 ET 44.6495 -70.2489 main 0 0 _____________P -1 44.6495 -70.2489 EX 30 17 39
1867223N24278 1867 13 NA NA NOT_NAMED 1867-08-18 06:00:00 ET 45.3000 -69.5000 main 0 0 _____________O -1 45.3000 -69.5000 EX 30 16 40
1867223N24278 1867 13 NA NA NOT_NAMED 1867-08-18 09:00:00 ET 45.9135 -68.7528 main 0 0 _____________P -1 45.9135 -68.7528 EX 30 16 41
1867223N24278 1867 13 NA NA NOT_NAMED 1867-08-18 12:00:00 ET 46.5000 -68.0000 main 0 _____________O -1 46.5000 -68.0000 EX 30 16 42

About IBTrACS Database

This database is a web-friendly format of International Best Track Archive for Climate Stewardship (IBTrACS), a global best track data archive curated by NOAA dating back to 1842.

Updated: 2021-10-08